sensor_id;sensor_type;location;lat;lon;timestamp;pressure;altitude;pressure_sealevel;temperature;humidity
22647;BME280;11490;42.726;23.268;2022-10-16T00:00:35;95869.03;;;9.20;91.05
22647;BME280;11490;42.726;23.268;2022-10-16T00:03:01;95882.13;;;9.15;93.08
22647;BME280;11490;42.726;23.268;2022-10-16T00:05:27;95884.22;;;9.13;92.64
22647;BME280;11490;42.726;23.268;2022-10-16T00:07:53;95873.16;;;9.09;93.28
22647;BME280;11490;42.726;23.268;2022-10-16T00:10:18;95867.31;;;8.87;93.44
22647;BME280;11490;42.726;23.268;2022-10-16T00:12:43;95882.84;;;8.91;93.81
22647;BME280;11490;42.726;23.268;2022-10-16T00:15:09;95893.00;;;9.07;92.97
22647;BME280;11490;42.726;23.268;2022-10-16T00:17:35;95897.13;;;9.03;91.98
22647;BME280;11490;42.726;23.268;2022-10-16T00:20:00;95899.00;;;8.96;91.70
22647;BME280;11490;42.726;23.268;2022-10-16T00:22:26;95893.31;;;8.85;92.30
22647;BME280;11490;42.726;23.268;2022-10-16T00:24:51;95887.41;;;8.77;94.24
22647;BME280;11490;42.726;23.268;2022-10-16T00:27:16;95902.88;;;9.00;92.54
22647;BME280;11490;42.726;23.268;2022-10-16T00:29:42;95901.06;;;8.94;91.48
22647;BME280;11490;42.726;23.268;2022-10-16T00:32:08;95897.88;;;8.65;94.38
22647;BME280;11490;42.726;23.268;2022-10-16T00:34:34;95912.16;;;8.77;94.30
22647;BME280;11490;42.726;23.268;2022-10-16T00:36:59;95908.47;;;8.78;92.77
22647;BME280;11490;42.726;23.268;2022-10-16T00:39:25;95893.59;;;8.64;94.05
22647;BME280;11490;42.726;23.268;2022-10-16T00:41:50;95890.94;;;8.58;95.97
22647;BME280;11490;42.726;23.268;2022-10-16T00:47:09;95902.75;;;8.81;94.05
22647;BME280;11490;42.726;23.268;2022-10-16T00:49:36;95898.06;;;8.70;93.98
22647;BME280;11490;42.726;23.268;2022-10-16T00:52:01;95898.06;;;8.70;94.01
22647;BME280;11490;42.726;23.268;2022-10-16T00:54:29;95885.38;;;8.72;93.72
22647;BME280;11490;42.726;23.268;2022-10-16T00:56:57;95871.66;;;8.75;92.69
22647;BME280;11490;42.726;23.268;2022-10-16T00:59:41;95896.41;;;8.82;92.54
22647;BME280;11490;42.726;23.268;2022-10-16T01:02:11;95896.59;;;8.87;92.47
22647;BME280;11490;42.726;23.268;2022-10-16T01:04:39;95905.38;;;8.88;92.69
22647;BME280;11490;42.726;23.268;2022-10-16T01:10:06;95910.94;;;8.73;92.87
22647;BME280;11490;42.726;23.268;2022-10-16T01:12:46;95910.78;;;8.55;95.52
22647;BME280;11490;42.726;23.268;2022-10-16T01:15:21;95914.19;;;8.75;93.94
22647;BME280;11490;42.726;23.268;2022-10-16T01:20:33;95906.44;;;8.67;92.43
22647;BME280;11490;42.726;23.268;2022-10-16T01:23:49;95901.72;;;8.82;91.73
22647;BME280;11490;42.726;23.268;2022-10-16T01:26:29;95898.84;;;8.77;91.16
22647;BME280;11490;42.726;23.268;2022-10-16T01:31:36;95892.13;;;8.68;91.91
22647;BME280;11490;42.726;23.268;2022-10-16T01:34:15;95894.22;;;8.53;91.91
22647;BME280;11490;42.726;23.268;2022-10-16T01:36:47;95906.69;;;8.53;91.67
22647;BME280;11490;42.726;23.268;2022-10-16T01:39:16;95895.84;;;8.54;91.47
22647;BME280;11490;42.726;23.268;2022-10-16T01:41:59;95897.91;;;8.59;90.90
22647;BME280;11490;42.726;23.268;2022-10-16T01:44:29;95895.03;;;8.47;90.64
22647;BME280;11490;42.726;23.268;2022-10-16T01:46:56;95892.19;;;8.42;90.66
22647;BME280;11490;42.726;23.268;2022-10-16T01:49:24;95908.97;;;8.49;90.80
22647;BME280;11490;42.726;23.268;2022-10-16T01:51:54;95896.69;;;8.28;90.49
22647;BME280;11490;42.726;23.268;2022-10-16T01:54:23;95907.94;;;7.97;92.38
22647;BME280;11490;42.726;23.268;2022-10-16T01:56:51;95916.75;;;8.04;93.72
22647;BME280;11490;42.726;23.268;2022-10-16T01:59:20;95916.31;;;8.21;92.04
22647;BME280;11490;42.726;23.268;2022-10-16T02:01:53;95920.78;;;8.13;91.61
22647;BME280;11490;42.726;23.268;2022-10-16T02:04:31;95911.41;;;8.04;92.42
22647;BME280;11490;42.726;23.268;2022-10-16T02:06:57;95921.63;;;8.21;91.50
22647;BME280;11490;42.726;23.268;2022-10-16T02:09:22;95888.13;;;7.93;91.45
22647;BME280;11490;42.726;23.268;2022-10-16T02:11:48;95924.50;;;8.19;91.08
22647;BME280;11490;42.726;23.268;2022-10-16T02:14:15;95898.31;;;7.83;90.83
22647;BME280;11490;42.726;23.268;2022-10-16T02:16:44;95933.06;;;8.01;91.18
22647;BME280;11490;42.726;23.268;2022-10-16T02:19:15;95935.13;;;8.13;90.63
22647;BME280;11490;42.726;23.268;2022-10-16T02:21:55;95937.97;;;7.98;90.93
22647;BME280;11490;42.726;23.268;2022-10-16T02:24:54;95940.41;;;7.99;90.94
22647;BME280;11490;42.726;23.268;2022-10-16T02:30:07;95923.03;;;7.90;91.57
22647;BME280;11490;42.726;23.268;2022-10-16T02:32:34;95947.16;;;8.08;91.23
22647;BME280;11490;42.726;23.268;2022-10-16T02:35:01;95935.53;;;7.96;91.71
22647;BME280;11490;42.726;23.268;2022-10-16T02:37:28;95916.69;;;7.78;92.36
22647;BME280;11490;42.726;23.268;2022-10-16T02:39:54;95921.19;;;7.84;93.06
22647;BME280;11490;42.726;23.268;2022-10-16T02:42:20;95927.75;;;7.95;92.01
22647;BME280;11490;42.726;23.268;2022-10-16T02:44:46;95937.97;;;7.98;91.46
22647;BME280;11490;42.726;23.268;2022-10-16T02:47:11;95934.47;;;7.84;90.93
22647;BME280;11490;42.726;23.268;2022-10-16T02:49:37;95945.72;;;7.86;90.87
22647;BME280;11490;42.726;23.268;2022-10-16T02:52:03;95953.44;;;7.61;91.41
22647;BME280;11490;42.726;23.268;2022-10-16T02:54:28;95951.34;;;7.44;93.25
22647;BME280;11490;42.726;23.268;2022-10-16T02:56:53;95953.31;;;7.28;92.80
22647;BME280;11490;42.726;23.268;2022-10-16T02:59:19;95957.22;;;7.26;93.27
22647;BME280;11490;42.726;23.268;2022-10-16T03:01:44;95947.19;;;7.21;93.95
22647;BME280;11490;42.726;23.268;2022-10-16T03:04:10;95963.44;;;7.05;93.64
22647;BME280;11490;42.726;23.268;2022-10-16T03:06:35;95962.22;;;7.01;94.88
22647;BME280;11490;42.726;23.268;2022-10-16T03:09:01;95947.34;;;7.13;94.12
22647;BME280;11490;42.726;23.268;2022-10-16T03:11:26;95961.88;;;7.17;93.13
22647;BME280;11490;42.726;23.268;2022-10-16T03:13:51;95961.91;;;7.30;92.71
22647;BME280;11490;42.726;23.268;2022-10-16T03:16:17;95952.09;;;7.24;92.47
22647;BME280;11490;42.726;23.268;2022-10-16T03:18:42;95973.31;;;7.24;92.13
22647;BME280;11490;42.726;23.268;2022-10-16T03:21:08;95967.44;;;7.35;92.06
22647;BME280;11490;42.726;23.268;2022-10-16T03:23:33;95970.50;;;7.32;91.62
22647;BME280;11490;42.726;23.268;2022-10-16T03:25:58;95974.53;;;7.22;91.77
22647;BME280;11490;42.726;23.268;2022-10-16T03:28:24;95981.06;;;7.19;93.26
22647;BME280;11490;42.726;23.268;2022-10-16T03:30:49;95967.56;;;7.14;92.77
22647;BME280;11490;42.726;23.268;2022-10-16T03:33:15;95967.97;;;7.11;92.81
22647;BME280;11490;42.726;23.268;2022-10-16T03:35:40;95974.56;;;6.81;94.16
22647;BME280;11490;42.726;23.268;2022-10-16T03:38:05;95974.47;;;7.02;94.13
22647;BME280;11490;42.726;23.268;2022-10-16T03:40:31;95972.94;;;7.27;93.17
22647;BME280;11490;42.726;23.268;2022-10-16T03:42:59;95974.97;;;7.25;92.55
22647;BME280;11490;42.726;23.268;2022-10-16T03:45:25;95965.16;;;7.19;92.50
22647;BME280;11490;42.726;23.268;2022-10-16T03:47:51;95962.94;;;7.29;92.50
22647;BME280;11490;42.726;23.268;2022-10-16T03:50:16;95956.59;;;7.30;92.59
22647;BME280;11490;42.726;23.268;2022-10-16T03:52:42;95961.41;;;7.07;94.03
22647;BME280;11490;42.726;23.268;2022-10-16T03:55:07;95951.22;;;7.04;93.41
22647;BME280;11490;42.726;23.268;2022-10-16T03:57:33;95963.50;;;7.18;92.51
22647;BME280;11490;42.726;23.268;2022-10-16T03:59:58;95964.78;;;7.35;91.79
22647;BME280;11490;42.726;23.268;2022-10-16T04:02:24;95959.84;;;7.19;91.61
22647;BME280;11490;42.726;23.268;2022-10-16T04:04:49;95973.13;;;7.19;91.22
22647;BME280;11490;42.726;23.268;2022-10-16T04:07:14;95968.75;;;7.05;93.26
22647;BME280;11490;42.726;23.268;2022-10-16T04:09:40;95971.69;;;7.23;92.28
22647;BME280;11490;42.726;23.268;2022-10-16T04:12:05;95968.03;;;7.24;91.51
22647;BME280;11490;42.726;23.268;2022-10-16T04:14:31;95971.22;;;7.13;90.99
22647;BME280;11490;42.726;23.268;2022-10-16T04:16:56;95978.50;;;6.98;91.48
22647;BME280;11490;42.726;23.268;2022-10-16T04:19:21;95972.03;;;7.07;91.67
22647;BME280;11490;42.726;23.268;2022-10-16T04:21:47;95960.09;;;6.90;92.08
22647;BME280;11490;42.726;23.268;2022-10-16T04:24:12;95973.50;;;7.16;92.30
22647;BME280;11490;42.726;23.268;2022-10-16T04:26:38;95969.19;;;7.15;92.14
22647;BME280;11490;42.726;23.268;2022-10-16T04:29:03;95961.00;;;7.04;91.66
22647;BME280;11490;42.726;23.268;2022-10-16T04:31:29;95975.19;;;6.89;91.10
22647;BME280;11490;42.726;23.268;2022-10-16T04:33:54;95976.41;;;6.87;92.55
22647;BME280;11490;42.726;23.268;2022-10-16T04:36:20;95988.19;;;6.78;95.93
22647;BME280;11490;42.726;23.268;2022-10-16T04:38:45;95982.91;;;6.84;96.06
22647;BME280;11490;42.726;23.268;2022-10-16T04:41:10;95981.00;;;6.72;94.03
22647;BME280;11490;42.726;23.268;2022-10-16T04:43:36;95978.81;;;6.82;93.49
22647;BME280;11490;42.726;23.268;2022-10-16T04:46:01;95968.59;;;6.72;94.02
22647;BME280;11490;42.726;23.268;2022-10-16T04:48:29;95990.91;;;6.91;93.30
22647;BME280;11490;42.726;23.268;2022-10-16T04:50:55;95995.84;;;6.94;92.80
22647;BME280;11490;42.726;23.268;2022-10-16T04:53:20;96006.03;;;6.97;92.03
22647;BME280;11490;42.726;23.268;2022-10-16T04:55:46;96016.41;;;6.92;92.57
22647;BME280;11490;42.726;23.268;2022-10-16T04:58:11;96005.25;;;6.69;92.66
22647;BME280;11490;42.726;23.268;2022-10-16T05:00:36;96012.28;;;6.83;92.64
22647;BME280;11490;42.726;23.268;2022-10-16T05:03:03;95954.56;;;6.50;92.87
22647;BME280;11490;42.726;23.268;2022-10-16T05:05:32;96011.81;;;6.73;93.32
22647;BME280;11490;42.726;23.268;2022-10-16T05:07:58;96020.06;;;6.91;93.00
22647;BME280;11490;42.726;23.268;2022-10-16T05:10:23;96006.59;;;6.86;93.05
22647;BME280;11490;42.726;23.268;2022-10-16T05:12:49;96021.34;;;6.95;92.77
22647;BME280;11490;42.726;23.268;2022-10-16T05:15:15;96004.13;;;6.84;94.49
22647;BME280;11490;42.726;23.268;2022-10-16T05:17:40;96018.28;;;6.98;94.40
22647;BME280;11490;42.726;23.268;2022-10-16T05:20:06;96026.72;;;7.08;94.33
22647;BME280;11490;42.726;23.268;2022-10-16T05:22:31;96015.72;;;7.11;93.99
22647;BME280;11490;42.726;23.268;2022-10-16T05:24:57;96016.72;;;7.10;94.43
22647;BME280;11490;42.726;23.268;2022-10-16T05:27:22;96026.38;;;7.18;94.77
22647;BME280;11490;42.726;23.268;2022-10-16T05:29:48;96012.91;;;7.19;94.60
22647;BME280;11490;42.726;23.268;2022-10-16T05:32:18;96033.59;;;7.37;94.24
22647;BME280;11490;42.726;23.268;2022-10-16T05:34:44;96020.69;;;7.27;94.06
22647;BME280;11490;42.726;23.268;2022-10-16T05:37:09;96021.88;;;7.18;96.58
22647;BME280;11490;42.726;23.268;2022-10-16T05:39:37;96047.31;;;7.47;96.00
22647;BME280;11490;42.726;23.268;2022-10-16T05:42:03;96040.81;;;7.56;95.48
22647;BME280;11490;42.726;23.268;2022-10-16T05:44:28;96040.00;;;7.56;95.58
22647;BME280;11490;42.726;23.268;2022-10-16T05:46:54;96033.91;;;7.62;95.14
22647;BME280;11490;42.726;23.268;2022-10-16T05:49:20;96046.63;;;7.73;95.66
22647;BME280;11490;42.726;23.268;2022-10-16T05:51:45;96029.78;;;7.53;96.28
22647;BME280;11490;42.726;23.268;2022-10-16T05:54:10;96044.16;;;7.71;96.51
22647;BME280;11490;42.726;23.268;2022-10-16T05:56:36;96044.16;;;7.71;97.59
22647;BME280;11490;42.726;23.268;2022-10-16T05:59:03;96048.66;;;7.71;99.13
22647;BME280;11490;42.726;23.268;2022-10-16T06:01:29;96049.44;;;8.32;98.82
22647;BME280;11490;42.726;23.268;2022-10-16T06:03:56;96061.09;;;8.77;97.30
22647;BME280;11490;42.726;23.268;2022-10-16T06:06:23;96038.19;;;8.43;96.31
22647;BME280;11490;42.726;23.268;2022-10-16T06:08:51;96063.94;;;9.09;94.11
22647;BME280;11490;42.726;23.268;2022-10-16T06:11:22;96071.06;;;9.35;92.66
22647;BME280;11490;42.726;23.268;2022-10-16T06:13:52;96024.53;;;9.37;91.29
22647;BME280;11490;42.726;23.268;2022-10-16T06:16:18;96087.13;;;9.73;90.27
22647;BME280;11490;42.726;23.268;2022-10-16T06:18:44;96082.03;;;10.09;89.63
22647;BME280;11490;42.726;23.268;2022-10-16T06:21:14;96084.94;;;10.01;88.63
22647;BME280;11490;42.726;23.268;2022-10-16T06:23:41;96095.56;;;10.14;88.69
22647;BME280;11490;42.726;23.268;2022-10-16T06:26:13;96094.75;;;10.14;88.78
22647;BME280;11490;42.726;23.268;2022-10-16T06:28:39;96098.09;;;9.96;89.34
22647;BME280;11490;42.726;23.268;2022-10-16T06:31:06;96079.28;;;9.91;90.39
22647;BME280;11490;42.726;23.268;2022-10-16T06:33:32;96101.72;;;10.21;90.85
22647;BME280;11490;42.726;23.268;2022-10-16T06:36:06;96095.97;;;10.18;89.62
22647;BME280;11490;42.726;23.268;2022-10-16T06:38:33;96098.59;;;10.24;89.40
22647;BME280;11490;42.726;23.268;2022-10-16T06:40:59;96097.94;;;10.35;88.31
22647;BME280;11490;42.726;23.268;2022-10-16T06:43:25;96105.41;;;10.07;91.52
22647;BME280;11490;42.726;23.268;2022-10-16T06:45:55;96108.09;;;10.52;89.81
22647;BME280;11490;42.726;23.268;2022-10-16T06:48:21;96109.41;;;10.36;89.12
22647;BME280;11490;42.726;23.268;2022-10-16T06:50:57;96118.41;;;10.41;89.22
22647;BME280;11490;42.726;23.268;2022-10-16T06:53:23;96106.56;;;10.62;88.73
22647;BME280;11490;42.726;23.268;2022-10-16T06:55:48;96116.84;;;10.27;90.77
22647;BME280;11490;42.726;23.268;2022-10-16T06:58:14;96111.50;;;10.27;89.89
22647;BME280;11490;42.726;23.268;2022-10-16T07:00:39;96092.53;;;10.04;90.70
22647;BME280;11490;42.726;23.268;2022-10-16T07:03:04;96117.13;;;10.06;91.08
22647;BME280;11490;42.726;23.268;2022-10-16T07:05:30;96117.72;;;10.21;90.36
22647;BME280;11490;42.726;23.268;2022-10-16T07:07:55;96126.84;;;10.70;87.57
22647;BME280;11490;42.726;23.268;2022-10-16T07:10:20;96120.66;;;10.76;87.27
22647;BME280;11490;42.726;23.268;2022-10-16T07:12:49;96118.84;;;10.95;87.21
22647;BME280;11490;42.726;23.268;2022-10-16T07:15:14;96121.97;;;11.16;86.30
22647;BME280;11490;42.726;23.268;2022-10-16T07:17:40;96120.53;;;11.39;84.77
22647;BME280;11490;42.726;23.268;2022-10-16T07:20:05;96128.72;;;10.94;85.33
22647;BME280;11490;42.726;23.268;2022-10-16T07:22:31;96119.78;;;10.82;86.84
22647;BME280;11490;42.726;23.268;2022-10-16T07:24:56;96127.91;;;10.94;86.54
22647;BME280;11490;42.726;23.268;2022-10-16T07:27:22;96128.94;;;11.17;86.09
22647;BME280;11490;42.726;23.268;2022-10-16T07:29:52;96119.00;;;11.25;85.96
22647;BME280;11490;42.726;23.268;2022-10-16T07:32:17;96123.94;;;11.28;85.50
22647;BME280;11490;42.726;23.268;2022-10-16T07:34:43;96126.00;;;11.26;85.77
22647;BME280;11490;42.726;23.268;2022-10-16T07:37:08;96132.63;;;11.16;86.72
22647;BME280;11490;42.726;23.268;2022-10-16T07:39:33;96131.44;;;11.37;86.34
22647;BME280;11490;42.726;23.268;2022-10-16T07:41:59;96133.44;;;11.42;85.94
22647;BME280;11490;42.726;23.268;2022-10-16T07:44:24;96133.50;;;11.60;84.53
22647;BME280;11490;42.726;23.268;2022-10-16T07:46:50;96097.41;;;11.69;84.31
22647;BME280;11490;42.726;23.268;2022-10-16T07:49:24;96083.13;;;11.82;83.58
22647;BME280;11490;42.726;23.268;2022-10-16T07:51:50;96076.84;;;11.51;83.12
22647;BME280;11490;42.726;23.268;2022-10-16T07:54:34;96038.75;;;11.19;83.46
22647;BME280;11490;42.726;23.268;2022-10-16T07:57:11;96033.84;;;11.16;83.92
22647;BME280;11490;42.726;23.268;2022-10-16T08:06:47;96114.53;;;13.99;75.28
22647;BME280;11490;42.726;23.268;2022-10-16T08:09:22;96097.41;;;14.57;73.76
22647;BME280;11490;42.726;23.268;2022-10-16T08:11:47;96152.88;;;15.92;68.93
22647;BME280;11490;42.726;23.268;2022-10-16T08:14:13;96117.25;;;15.85;66.07
22647;BME280;11490;42.726;23.268;2022-10-16T08:16:38;96126.16;;;16.99;63.79
22647;BME280;11490;42.726;23.268;2022-10-16T08:19:03;96122.88;;;17.98;60.09
22647;BME280;11490;42.726;23.268;2022-10-16T08:21:29;96085.09;;;17.56;59.21
22647;BME280;11490;42.726;23.268;2022-10-16T08:23:54;96112.47;;;17.75;59.12
22647;BME280;11490;42.726;23.268;2022-10-16T08:26:20;96092.81;;;17.79;60.18
22647;BME280;11490;42.726;23.268;2022-10-16T08:28:45;96130.72;;;17.99;59.73
22647;BME280;11490;42.726;23.268;2022-10-16T08:31:15;96120.69;;;18.47;57.38
22647;BME280;11490;42.726;23.268;2022-10-16T08:33:42;96134.19;;;18.42;58.45
22647;BME280;11490;42.726;23.268;2022-10-16T08:36:09;96089.00;;;17.70;57.02
22647;BME280;11490;42.726;23.268;2022-10-16T08:38:35;96070.06;;;18.17;56.48
22647;BME280;11490;42.726;23.268;2022-10-16T08:49:31;96090.00;;;18.99;54.31
22647;BME280;11490;42.726;23.268;2022-10-16T08:51:57;96095.03;;;18.50;54.59
22647;BME280;11490;42.726;23.268;2022-10-16T08:54:29;96122.97;;;18.86;54.19
22647;BME280;11490;42.726;23.268;2022-10-16T08:57:04;96129.56;;;19.35;53.39
22647;BME280;11490;42.726;23.268;2022-10-16T08:59:32;96113.81;;;19.02;51.13
22647;BME280;11490;42.726;23.268;2022-10-16T09:01:57;96114.06;;;18.80;51.13
22647;BME280;11490;42.726;23.268;2022-10-16T09:04:51;96142.72;;;18.24;53.32
22647;BME280;11490;42.726;23.268;2022-10-16T09:07:32;96147.31;;;18.91;52.19
22647;BME280;11490;42.726;23.268;2022-10-16T09:21:20;96133.19;;;18.58;51.23
22647;BME280;11490;42.726;23.268;2022-10-16T09:23:47;96131.09;;;18.80;51.66
22647;BME280;11490;42.726;23.268;2022-10-16T09:26:14;96127.88;;;19.09;51.12
22647;BME280;11490;42.726;23.268;2022-10-16T09:28:41;96128.09;;;18.82;49.28
22647;BME280;11490;42.726;23.268;2022-10-16T09:31:15;96127.63;;;19.26;50.31
22647;BME280;11490;42.726;23.268;2022-10-16T09:33:43;96130.03;;;19.07;49.16
22647;BME280;11490;42.726;23.268;2022-10-16T09:36:12;96115.97;;;18.95;50.12
22647;BME280;11490;42.726;23.268;2022-10-16T09:38:38;96139.16;;;18.75;49.49
22647;BME280;11490;42.726;23.268;2022-10-16T09:41:19;96115.44;;;19.03;48.51
22647;BME280;11490;42.726;23.268;2022-10-16T09:43:55;96106.22;;;18.99;49.08
22647;BME280;11490;42.726;23.268;2022-10-16T09:46:33;96100.84;;;19.04;47.84
22647;BME280;11490;42.726;23.268;2022-10-16T09:49:01;96102.47;;;18.95;49.28
22647;BME280;11490;42.726;23.268;2022-10-16T09:51:35;96101.94;;;19.23;49.42
22647;BME280;11490;42.726;23.268;2022-10-16T09:56:38;96081.91;;;18.94;47.75
22647;BME280;11490;42.726;23.268;2022-10-16T09:59:12;96115.19;;;19.30;48.27
22647;BME280;11490;42.726;23.268;2022-10-16T10:02:11;96107.63;;;19.16;48.92
22647;BME280;11490;42.726;23.268;2022-10-16T10:04:39;96113.22;;;18.69;50.24
22647;BME280;11490;42.726;23.268;2022-10-16T10:07:06;96070.50;;;18.56;50.54
22647;BME280;11490;42.726;23.268;2022-10-16T10:09:44;96082.16;;;18.72;50.51
22647;BME280;11490;42.726;23.268;2022-10-16T10:12:40;96076.47;;;18.83;51.23
22647;BME280;11490;42.726;23.268;2022-10-16T10:15:10;96098.88;;;18.69;52.00
22647;BME280;11490;42.726;23.268;2022-10-16T10:17:50;96092.53;;;18.38;50.57
22647;BME280;11490;42.726;23.268;2022-10-16T10:20:23;96105.69;;;18.14;51.62
22647;BME280;11490;42.726;23.268;2022-10-16T10:22:49;96103.06;;;17.77;52.28
22647;BME280;11490;42.726;23.268;2022-10-16T10:25:30;96083.63;;;17.75;53.52
22647;BME280;11490;42.726;23.268;2022-10-16T10:28:31;96076.34;;;17.76;52.38
22647;BME280;11490;42.726;23.268;2022-10-16T10:39:13;96087.94;;;17.76;53.72
22647;BME280;11490;42.726;23.268;2022-10-16T10:44:50;96070.09;;;17.70;53.98
22647;BME280;11490;42.726;23.268;2022-10-16T10:50:18;96064.03;;;17.58;53.80
22647;BME280;11490;42.726;23.268;2022-10-16T10:55:40;96028.44;;;17.56;53.80
22647;BME280;11490;42.726;23.268;2022-10-16T11:01:11;96063.09;;;17.74;53.92
22647;BME280;11490;42.726;23.268;2022-10-16T11:04:01;96051.59;;;17.47;53.68
22647;BME280;11490;42.726;23.268;2022-10-16T11:07:02;96054.09;;;17.21;54.24
22647;BME280;11490;42.726;23.268;2022-10-16T11:09:36;96047.28;;;17.51;54.76
22647;BME280;11490;42.726;23.268;2022-10-16T11:12:19;96046.31;;;17.62;55.45
22647;BME280;11490;42.726;23.268;2022-10-16T11:14:52;96049.00;;;17.62;53.95
22647;BME280;11490;42.726;23.268;2022-10-16T11:17:40;96057.19;;;17.77;52.85
22647;BME280;11490;42.726;23.268;2022-10-16T11:20:20;96037.03;;;17.48;51.80
22647;BME280;11490;42.726;23.268;2022-10-16T11:22:56;96044.59;;;17.51;53.21
22647;BME280;11490;42.726;23.268;2022-10-16T11:25:30;96030.25;;;17.40;53.55
22647;BME280;11490;42.726;23.268;2022-10-16T11:30:30;96041.19;;;17.28;54.44
22647;BME280;11490;42.726;23.268;2022-10-16T11:35:47;96032.69;;;17.42;53.26
22647;BME280;11490;42.726;23.268;2022-10-16T11:38:31;96036.78;;;17.54;53.57
22647;BME280;11490;42.726;23.268;2022-10-16T11:47:01;96027.88;;;17.54;53.09
22647;BME280;11490;42.726;23.268;2022-10-16T11:49:34;96031.41;;;17.54;52.16
22647;BME280;11490;42.726;23.268;2022-10-16T11:52:39;96037.59;;;17.55;52.63
22647;BME280;11490;42.726;23.268;2022-10-16T11:55:16;96028.97;;;17.53;51.42
22647;BME280;11490;42.726;23.268;2022-10-16T11:57:50;96032.72;;;17.52;51.80
22647;BME280;11490;42.726;23.268;2022-10-16T12:03:33;96046.19;;;17.47;49.55
22647;BME280;11490;42.726;23.268;2022-10-16T12:08:44;96024.59;;;17.42;50.53
22647;BME280;11490;42.726;23.268;2022-10-16T12:13:51;96035.84;;;17.71;52.22
22647;BME280;11490;42.726;23.268;2022-10-16T12:18:46;96028.25;;;17.62;52.15
22647;BME280;11490;42.726;23.268;2022-10-16T12:21:16;96030.59;;;17.54;52.50
22647;BME280;11490;42.726;23.268;2022-10-16T12:23:58;96037.72;;;17.65;53.32
22647;BME280;11490;42.726;23.268;2022-10-16T12:26:25;96033.31;;;17.59;52.45
22647;BME280;11490;42.726;23.268;2022-10-16T12:28:52;96021.41;;;17.55;52.41
22647;BME280;11490;42.726;23.268;2022-10-16T12:31:17;96032.72;;;17.52;50.78
22647;BME280;11490;42.726;23.268;2022-10-16T12:33:56;96025.66;;;17.41;49.90
22647;BME280;11490;42.726;23.268;2022-10-16T12:36:35;96025.38;;;17.42;49.74
22647;BME280;11490;42.726;23.268;2022-10-16T12:39:00;96027.31;;;17.52;50.49
22647;BME280;11490;42.726;23.268;2022-10-16T12:41:31;96030.03;;;17.52;50.39
22647;BME280;11490;42.726;23.268;2022-10-16T12:43:57;96017.59;;;17.46;51.19
22647;BME280;11490;42.726;23.268;2022-10-16T12:46:43;96025.44;;;17.47;51.35
22647;BME280;11490;42.726;23.268;2022-10-16T12:51:38;96027.44;;;17.62;49.94
22647;BME280;11490;42.726;23.268;2022-10-16T13:02:50;96041.69;;;17.57;51.66
22647;BME280;11490;42.726;23.268;2022-10-16T13:13:57;96043.72;;;17.82;47.59
22647;BME280;11490;42.726;23.268;2022-10-16T13:22:12;96032.06;;;17.72;43.86
22647;BME280;11490;42.726;23.268;2022-10-16T13:25:17;96041.00;;;17.77;43.29
22647;BME280;11490;42.726;23.268;2022-10-16T13:28:00;96022.31;;;17.65;44.05
22647;BME280;11490;42.726;23.268;2022-10-16T13:30:30;96043.13;;;17.70;44.21
22647;BME280;11490;42.726;23.268;2022-10-16T13:33:28;96052.34;;;17.79;43.56
22647;BME280;11490;42.726;23.268;2022-10-16T13:35:57;96037.22;;;17.78;45.88
22647;BME280;11490;42.726;23.268;2022-10-16T13:38:24;96046.97;;;17.84;46.40
22647;BME280;11490;42.726;23.268;2022-10-16T13:43:36;96052.84;;;17.71;45.04
22647;BME280;11490;42.726;23.268;2022-10-16T13:46:11;96056.38;;;17.77;45.43
22647;BME280;11490;42.726;23.268;2022-10-16T13:48:37;96048.50;;;17.65;45.11
22647;BME280;11490;42.726;23.268;2022-10-16T13:53:34;96058.25;;;17.71;45.38
22647;BME280;11490;42.726;23.268;2022-10-16T13:55:59;96052.75;;;17.61;44.72
22647;BME280;11490;42.726;23.268;2022-10-16T13:58:25;96040.28;;;17.50;44.32
22647;BME280;11490;42.726;23.268;2022-10-16T14:01:05;96048.91;;;17.52;44.74
22647;BME280;11490;42.726;23.268;2022-10-16T14:03:40;96050.28;;;17.54;44.93
22647;BME280;11490;42.726;23.268;2022-10-16T14:06:12;96058.66;;;17.58;45.30
22647;BME280;11490;42.726;23.268;2022-10-16T14:08:42;96063.53;;;17.61;44.49
22647;BME280;11490;42.726;23.268;2022-10-16T14:11:09;96041.31;;;17.44;45.37
22647;BME280;11490;42.726;23.268;2022-10-16T14:13:40;96034.22;;;17.33;44.24
22647;BME280;11490;42.726;23.268;2022-10-16T14:16:18;96061.06;;;17.49;45.27
22647;BME280;11490;42.726;23.268;2022-10-16T14:18:46;96060.19;;;17.44;45.25
22647;BME280;11490;42.726;23.268;2022-10-16T14:21:15;96065.06;;;17.47;44.98
22647;BME280;11490;42.726;23.268;2022-10-16T14:23:42;96053.13;;;17.38;44.66
22647;BME280;11490;42.726;23.268;2022-10-16T14:28:33;96042.28;;;17.27;45.25
22647;BME280;11490;42.726;23.268;2022-10-16T14:31:00;96063.84;;;17.27;44.68
22647;BME280;11490;42.726;23.268;2022-10-16T14:36:04;96062.19;;;17.21;45.28
22647;BME280;11490;42.726;23.268;2022-10-16T14:38:31;96053.47;;;17.09;45.75
22647;BME280;11490;42.726;23.268;2022-10-16T14:40:59;96048.03;;;17.04;45.16
22647;BME280;11490;42.726;23.268;2022-10-16T14:43:32;96058.22;;;16.97;46.52
22647;BME280;11490;42.726;23.268;2022-10-16T14:45:58;96056.50;;;16.86;46.40
22647;BME280;11490;42.726;23.268;2022-10-16T14:48:24;96067.91;;;16.93;46.22
22647;BME280;11490;42.726;23.268;2022-10-16T14:50:50;96082.94;;;16.89;46.41
22647;BME280;11490;42.726;23.268;2022-10-16T14:53:15;96060.13;;;16.70;46.55
22647;BME280;11490;42.726;23.268;2022-10-16T14:55:42;96038.09;;;16.51;46.35
22647;BME280;11490;42.726;23.268;2022-10-16T14:58:21;96100.66;;;16.80;46.07
22647;BME280;11490;42.726;23.268;2022-10-16T15:00:48;96077.22;;;16.59;46.12
22647;BME280;11490;42.726;23.268;2022-10-16T15:03:14;96079.44;;;16.62;46.20
22647;BME280;11490;42.726;23.268;2022-10-16T15:05:39;96088.00;;;16.59;47.05
22647;BME280;11490;42.726;23.268;2022-10-16T15:08:05;96086.28;;;16.47;46.95